AirNav   Free Bose QuietComfort 20
 
 983 users online  

FA45 Lake Wales Heliport
Lake Wales, Florida, USA

GOING TO LAKE WALES?


FAA INFORMATION EFFECTIVE 05 DECEMBER 2019

Location

FAA Identifier: FA45
Lat/Long: 27-54-58.8900N 081-32-56.3400W
27-54.981500N 081-32.939000W
27.9163583,-81.5489833
(estimated)
Elevation: 125 ft. / 38 m (estimated)
Variation: 03W (1985)
From city: 3 miles NE of LAKE WALES, FL
Time zone: UTC -5 (UTC -4 during Daylight Saving Time)
Zip code: 33853

Heliport Operations

Heliport use: Private use. Permission required prior to landing
Activation date: 06/1965
Control tower: no
ARTCC: MIAMI CENTER
FSS: SAINT PETERSBURG FLIGHT SERVICE STATION
Attendance: IREG
Wind indicator: yes
Segmented circle: no

Heliport Communications

WX AWOS-3 at X07 (4 nm W): 124.225 (863-678-1334)
WX AWOS-3 at BOW (13 nm W): 123.775 (863-533-9004)
WX ASOS at GIF (14 nm NW): 133.675 (863-956-2097)
WX AWOS-3 at AVO (20 nm S): 118.725 (863-453-4223)

Nearby radio navigation aids

VOR radial/distance  VOR name  Freq  Var
LALr099/25.0LAKELAND VORTAC116.0001E
ORLr197/39.2ORLANDO VORTAC112.2000E

Heliport Services

Parking: hangars
Airframe service: NONE
Powerplant service: NONE

Runway Information

Helipad H1

Dimensions: 25 x 25 ft. / 8 x 8 m
25' TRIANGULAR PAD WITHIN A 500 X 300 FT GRAVEL LNDG/TKOF AREA.
Surface: concrete
Operational restrictions: INGRESS/EGRESS NE-SW.
Latitude: 27-54.981500N
Longitude: 081-32.939000W
Elevation: 125.0 ft.
Traffic pattern: leftleft

Heliport Ownership and Management from official FAA records

Ownership: Privately-owned
Owner: WHIRLY BIRDS INC
3660 S. SCENIC HWY
LAKE WALES, FL 33898
Phone 863-528-4879
Manager: LEE W. TURNQUIST
3660 S. SCENIC HWY
LAKE WALES, FL 33898
Phone 863-528-4879

Heliport Operational Statistics

Aircraft based on the field: 1
Helicopters: 1
    

Additional Remarks

A52-H1 18' TREES 300' TO SW; 20' TREES 300' NE;+35' PLINE 250' S; 25' POLE 400' E.
FLD USED FOR AGRI OPNS.
FOR CD CTC MIAMI ARTCC AT 305-716-1731.

Instrument Procedures

There are no published instrument procedures at FA45.

Some nearby airports with instrument procedures:

X07 - Lake Wales Municipal Airport (4 nm W)
KBOW - Bartow Executive Airport (13 nm W)
KGIF - Winter Haven Regional Airport (14 nm NW)
KAVO - Avon Park Executive Airport (20 nm S)
KISM - Kissimmee Gateway Airport (23 nm N)
 
Loc | Ops | Rwys | IFR | FBO | Links
Com | Nav | Svcs | Stats | Notes

Reliance Aviation
AirBoss

 
Area around FA45 (Lake Wales Heliport)
 
Road maps at: MapQuest Bing Google
 
Aerial photo
No photo
 
Sectional chart

 
Airport distance calculator
Flying to Lake Wales Heliport? Find the distance to fly.

From to FA45

Sunrise and sunset
Times for 13-Dec-2019
 Local
(UTC-5)
 Zulu
(UTC)
Morning civil twilight06:4411:44
Sunrise07:1012:10
Sunset17:3122:31
Evening civil twilight17:5722:57

Current date and time
Zulu (UTC)  13-Dec-2019 13:40:38
Local (UTC-5)  13-Dec-2019 08:40:38
 
METAR
KX07 
4nm W 
131315Z AUTO 00000KT 9SM BKN032 OVC039 20/20 A3004 RMK A01
KBOW 
12nm W 
131255Z 00000KT 8SM BKN010 20/19 A3002
KGIF 
14nm NW 
131253Z AUTO 15007KT 10SM CLR 21/19 A3003 RMK AO2 SLP165 T02060194
TAF
KISM 
23nm N 
131131Z 1312/1412 13004KT P6SM FEW025 OVC100 FM131500 16008KT P6SM SCT022 BKN050 FM132100 21009KT P6SM VCSH BKN035 FM140000 20005KT P6SM SCT030 BKN250 FM141100 25009KT P6SM VCSH SCT030 BKN050
KLAL 
25nm W 
131127Z 1312/1412 12005KT P6SM SCT010 BKN100 TEMPO 1312/1314 BKN006 FM131500 15006KT P6SM SCT025 BKN100 FM131700 19007KT P6SM VCSH SCT030 BKN100 FM140600 21007KT P6SM VCSH SCT020 BKN100
NOTAMs
Click for the latest NOTAMs
NOTAMs are issued by the DoD/FAA and will open in a separate window not controlled by AirNav.

 

 
 

Would you like to see your business listed on this page?

 If your business provides an interesting product or service to pilots, flight crews, aircraft, or users of the Lake Wales Heliport, you should consider listing it here.  To start the listing process, click on the button below
 
Add a business
 

Other Pages about Lake Wales Heliport

Update a link
 
Copyright © AirNav, LLC. All rights reserved. Privacy Policy  Contact